Time;durP1;ratioP1;P1;durP2;ratioP2;P2;SDS_P1;SDS_P2;PMS_P1;PMS_P2;Temp;Humidity;BMP_temperature;BMP_pressure;BME280_temperature;BME280_humidity;BME280_pressure;Samples;Min_cycle;Max_cycle;Signal;HPM_P1;HPM_P2
2022/06/18 00:00:19;;;;;;;11.23;5.70;;;18.10;1.00;;;;;;5074659;28;20087;-24
2022/06/18 00:02:45;;;;;;;10.73;5.65;;;18.00;1.00;;;;;;5075386;28;20386;-24
2022/06/18 00:05:14;;;;;;;8.02;5.05;;;18.10;1.00;;;;;;5074715;28;20036;-24
2022/06/18 00:07:45;;;;;;;10.68;5.53;;;18.10;1.00;;;;;;5074750;28;20084;-25
2022/06/18 00:10:14;;;;;;;9.07;6.07;;;18.10;1.00;;;;;;5075291;28;20056;-24
2022/06/18 00:15:29;;;;;;;8.60;5.65;;;18.00;1.00;;;;;;5075183;28;20090;-24
2022/06/18 00:17:55;;;;;;;13.40;5.25;;;18.00;1.00;;;;;;5074513;28;20036;-24
2022/06/18 00:20:24;;;;;;;8.07;6.28;;;18.00;1.00;;;;;;5057232;28;20048;-25
2022/06/18 00:22:53;;;;;;;8.18;5.90;;;18.00;1.00;;;;;;5074487;28;20444;-24
2022/06/18 00:25:31;;;;;;;9.02;5.72;;;18.00;1.00;;;;;;5072964;28;20049;-24
2022/06/18 00:27:58;;;;;;;8.95;5.40;;;18.00;1.00;;;;;;5074372;28;20053;-24
2022/06/18 00:30:26;;;;;;;7.57;6.18;;;18.00;1.00;;;;;;5073367;28;20056;-24
2022/06/18 00:32:52;;;;;;;11.20;6.90;;;18.00;1.00;;;;;;5074559;28;20070;-24
2022/06/18 00:35:18;;;;;;;10.75;6.30;;;18.00;1.00;;;;;;5074273;28;20123;-24
2022/06/18 00:37:45;;;;;;;7.90;6.20;;;18.20;1.00;;;;;;5072920;28;20056;-24
2022/06/18 00:40:17;;;;;;;11.35;6.85;;;18.10;1.00;;;;;;5074123;28;20048;-24
2022/06/18 00:42:44;;;;;;;9.05;5.72;;;18.30;1.00;;;;;;5072854;28;20049;-24
2022/06/18 00:45:16;;;;;;;10.43;5.57;;;18.40;1.00;;;;;;5074041;28;20045;-24
2022/06/18 00:47:50;;;;;;;8.70;5.60;;;18.60;1.00;;;;;;5073983;28;20044;-24
2022/06/18 00:50:28;;;;;;;10.20;6.32;;;18.80;1.00;;;;;;5074113;28;20052;-24
2022/06/18 00:53:12;;;;;;;10.95;6.50;;;18.90;1.00;;;;;;5074040;28;20045;-24
2022/06/18 00:55:51;;;;;;;9.50;6.97;;;18.90;1.00;;;;;;5074547;28;20374;-24
2022/06/18 00:58:28;;;;;;;10.05;6.38;;;18.80;1.00;;;;;;5074018;28;20053;-24
2022/06/18 01:00:56;;;;;;;10.82;6.18;;;18.80;1.00;;;;;;5073973;28;20052;-24
2022/06/18 01:03:40;;;;;;;9.68;6.10;;;18.80;1.00;;;;;;5074247;28;20040;-24
2022/06/18 01:06:20;;;;;;;8.98;5.65;;;19.00;1.00;;;;;;5073774;28;20091;-24
2022/06/18 01:08:47;;;;;;;15.35;5.68;;;19.10;99.90;;;;;;5073832;28;20135;-24
2022/06/18 01:11:22;;;;;;;9.57;6.35;;;19.20;99.90;;;;;;5073681;28;20123;-25
2022/06/18 01:13:49;;;;;;;11.70;6.28;;;19.20;99.90;;;;;;5073132;28;20410;-24
2022/06/18 01:16:16;;;;;;;11.05;6.32;;;19.30;99.90;;;;;;5073635;28;20106;-24
2022/06/18 01:18:43;;;;;;;11.77;7.22;;;19.30;99.90;;;;;;5073058;28;20044;-24
2022/06/18 01:21:41;;;;;;;11.82;5.95;;;19.30;99.90;;;;;;5073645;28;20537;-25
2022/06/18 01:24:12;;;;;;;12.52;7.75;;;19.30;99.90;;;;;;5061895;28;20048;-24
2022/06/18 01:26:39;;;;;;;10.20;7.00;;;19.20;99.90;;;;;;5072263;28;20477;-25
2022/06/18 01:29:05;;;;;;;12.40;7.43;;;19.20;99.90;;;;;;5072601;28;20383;-24
2022/06/18 01:31:31;;;;;;;15.73;7.80;;;19.10;99.90;;;;;;5073558;28;20048;-24
2022/06/18 01:33:58;;;;;;;15.80;7.65;;;19.00;1.00;;;;;;5074343;28;20041;-25
2022/06/18 01:36:29;;;;;;;13.07;8.60;;;18.90;1.00;;;;;;5073769;28;20406;-25
2022/06/18 01:38:55;;;;;;;10.80;8.60;;;18.80;1.00;;;;;;5073518;28;20051;-24
2022/06/18 01:44:27;;;;;;;14.93;8.90;;;18.60;1.00;;;;;;5073507;28;20060;-24
2022/06/18 01:46:57;;;;;;;11.60;8.48;;;18.40;1.00;;;;;;5074054;28;20049;-24
2022/06/18 01:49:30;;;;;;;18.42;8.82;;;18.30;1.00;;;;;;5072761;28;20052;-24
2022/06/18 01:52:00;;;;;;;14.63;9.60;;;18.00;1.00;;;;;;5073447;28;20060;-24
2022/06/18 01:54:32;;;;;;;13.88;9.63;;;17.70;1.00;;;;;;5072878;28;20413;-24
2022/06/18 01:57:03;;;;;;;13.13;10.23;;;17.40;80.00;;;;;;5073034;28;20049;-24
2022/06/18 01:59:33;;;;;;;14.73;10.43;;;17.10;99.90;;;;;;5073593;28;20048;-24
2022/06/18 02:01:59;;;;;;;15.68;10.95;;;16.90;99.90;;;;;;5073222;28;20402;-24
2022/06/18 02:04:27;;;;;;;23.02;11.80;;;16.70;99.90;;;;;;5072921;28;20383;-24
2022/06/18 02:06:53;;;;;;;18.88;12.00;;;16.60;99.90;;;;;;5073238;28;20607;-24
2022/06/18 02:09:58;;;;;;;17.58;13.20;;;16.50;1.00;;;;;;5072839;28;20040;-24
2022/06/18 02:12:28;;;;;;;19.02;12.43;;;16.40;1.00;;;;;;5071936;28;20304;-24
2022/06/18 02:15:01;;;;;;;22.48;13.60;;;16.30;1.00;;;;;;5073710;28;20047;-24
2022/06/18 02:17:29;;;;;;;16.63;12.73;;;16.30;1.00;;;;;;5073695;28;20051;-24
2022/06/18 02:20:00;;;;;;;17.60;14.77;;;16.20;1.00;;;;;;5073069;28;20080;-24
2022/06/18 02:22:31;;;;;;;17.70;13.35;;;16.10;10.00;;;;;;5073647;28;20055;-24
2022/06/18 02:24:57;;;;;;;15.70;13.55;;;16.10;36.20;;;;;;5075642;28;20036;-24
2022/06/18 02:27:24;;;;;;;18.20;14.50;;;16.00;99.90;;;;;;5075360;28;20110;-24
2022/06/18 02:29:49;;;;;;;20.75;15.68;;;16.00;99.90;;;;;;5076636;28;20083;-24
2022/06/18 02:32:31;;;;;;;25.08;15.05;;;15.90;99.90;;;;;;5075630;28;20076;-24
2022/06/18 02:34:56;;;;;;;18.77;15.25;;;15.80;99.90;;;;;;5076578;28;20050;-24
2022/06/18 02:37:27;;;;;;;19.92;17.05;;;15.70;99.90;;;;;;5075338;28;20131;-24
2022/06/18 02:39:59;;;;;;;16.10;13.98;;;15.50;99.90;;;;;;5076735;28;20045;-24
2022/06/18 02:42:27;;;;;;;19.38;17.08;;;15.40;99.90;;;;;;5075844;28;20127;-24
2022/06/18 02:44:53;;;;;;;22.27;16.48;;;15.30;99.90;;;;;;5076569;28;20144;-24
2022/06/18 02:47:21;;;;;;;22.40;17.88;;;15.10;99.90;;;;;;5076306;28;20052;-23
2022/06/18 02:50:00;;;;;;;28.08;18.65;;;14.90;99.90;;;;;;5076234;28;20044;-23
2022/06/18 02:52:30;;;;;;;23.83;19.08;;;14.70;1.00;;;;;;5076334;28;20047;-23
2022/06/18 02:55:07;;;;;;;22.73;19.42;;;14.60;1.00;;;;;;5076834;28;20401;-23
2022/06/18 02:57:32;;;;;;;26.33;19.17;;;14.50;1.00;;;;;;5077047;28;20040;-23
2022/06/18 02:59:58;;;;;;;23.77;20.98;;;14.40;1.00;;;;;;5074969;28;20041;-24
2022/06/18 03:02:24;;;;;;;26.23;22.10;;;14.30;1.00;;;;;;5076096;28;20051;-23
2022/06/18 03:04:50;;;;;;;24.92;20.90;;;14.30;1.00;;;;;;5075998;28;20359;-23
2022/06/18 03:07:15;;;;;;;25.45;21.63;;;14.20;56.60;;;;;;5075995;28;20446;-23
2022/06/18 03:12:25;;;;;;;32.50;23.83;;;14.20;99.90;;;;;;5075917;28;20048;-23
2022/06/18 03:14:51;;;;;;;28.77;23.08;;;14.20;99.90;;;;;;5076707;28;20040;-23
2022/06/18 03:17:16;;;;;;;30.58;23.08;;;14.10;99.90;;;;;;5076308;28;20447;-23
2022/06/18 03:19:53;;;;;;;34.17;24.25;;;14.10;99.90;;;;;;5076355;28;20044;-23
2022/06/18 03:22:21;;;;;;;35.28;24.85;;;14.00;99.90;;;;;;5076319;28;20048;-23
2022/06/18 03:24:47;;;;;;;34.17;26.60;;;14.00;99.90;;;;;;5075591;28;20131;-24
2022/06/18 03:27:14;;;;;;;37.10;28.20;;;13.90;99.90;;;;;;5076756;28;20048;-23
2022/06/18 03:29:41;;;;;;;40.03;32.10;;;13.90;99.90;;;;;;5075199;28;20402;-24
2022/06/18 03:32:08;;;;;;;45.40;34.88;;;14.00;99.90;;;;;;5041303;28;20051;-24
2022/06/18 03:34:33;;;;;;;39.95;31.77;;;14.00;99.90;;;;;;5075998;28;20049;-24
2022/06/18 03:36:59;;;;;;;41.28;32.42;;;14.10;99.90;;;;;;5074705;28;20146;-23
2022/06/18 03:39:26;;;;;;;45.55;31.83;;;14.10;99.90;;;;;;5076160;28;20044;-24
2022/06/18 03:41:51;;;;;;;41.63;33.45;;;14.10;1.00;;;;;;5075337;28;20054;-23
2022/06/18 03:44:17;;;;;;;50.70;32.28;;;14.20;1.00;;;;;;5075556;28;20123;-23
2022/06/18 03:46:44;;;;;;;56.13;36.83;;;14.20;1.00;;;;;;5057250;28;20392;-23
2022/06/18 03:49:35;;;;;;;47.72;36.40;;;14.20;1.00;;;;;;5074009;28;20044;-23
2022/06/18 03:52:03;;;;;;;47.22;35.33;;;14.20;1.00;;;;;;5075161;28;20047;-23
2022/06/18 03:54:29;;;;;;;46.60;35.85;;;14.30;1.00;;;;;;5073931;28;20044;-23
2022/06/18 03:56:55;;;;;;;62.67;39.53;;;14.30;1.00;;;;;;5075032;28;20055;-24
2022/06/18 03:59:21;;;;;;;58.33;41.80;;;14.40;1.00;;;;;;5075773;28;20048;-23
2022/06/18 04:01:47;;;;;;;52.13;42.58;;;14.50;1.00;;;;;;5074294;28;20131;-23
2022/06/18 04:04:14;;;;;;;56.97;41.08;;;14.50;1.00;;;;;;5075378;28;20439;-24
2022/06/18 04:06:40;;;;;;;57.85;41.50;;;14.60;1.00;;;;;;5073603;28;20044;-23
2022/06/18 04:09:06;;;;;;;56.88;40.33;;;14.70;4.30;;;;;;5073826;28;20482;-23
2022/06/18 04:11:33;;;;;;;60.78;40.72;;;14.70;7.90;;;;;;5074634;28;20093;-23
2022/06/18 04:13:59;;;;;;;48.55;38.55;;;14.80;20.80;;;;;;5074409;28;20499;-23
2022/06/18 04:16:25;;;;;;;56.00;40.90;;;14.80;25.50;;;;;;5074582;28;20051;-23
2022/06/18 04:18:52;;;;;;;60.22;41.10;;;14.80;30.80;;;;;;5074555;28;20052;-23
2022/06/18 04:21:17;;;;;;;61.72;43.58;;;14.80;42.10;;;;;;5074484;28;20036;-24
2022/06/18 04:23:44;;;;;;;57.85;42.35;;;14.90;68.40;;;;;;5075230;28;20051;-24
2022/06/18 04:26:11;;;;;;;64.55;45.00;;;15.00;96.40;;;;;;5073155;28;20053;-24
2022/06/18 04:28:37;;;;;;;54.88;40.97;;;15.00;99.90;;;;;;5073673;28;20092;-24
2022/06/18 04:31:04;;;;;;;59.65;42.13;;;15.10;99.90;;;;;;5073952;28;20101;-24
2022/06/18 04:33:30;;;;;;;54.42;40.67;;;15.20;99.90;;;;;;5074275;28;20084;-23
2022/06/18 04:35:57;;;;;;;60.85;42.22;;;15.20;99.90;;;;;;5073237;28;20084;-24
2022/06/18 04:38:24;;;;;;;61.67;42.42;;;15.30;99.90;;;;;;5074185;28;20051;-23
2022/06/18 04:40:50;;;;;;;60.65;39.92;;;15.40;99.90;;;;;;5074161;28;20071;-24
2022/06/18 04:43:16;;;;;;;60.65;42.85;;;15.40;99.90;;;;;;5073008;28;20549;-24
2022/06/18 04:45:41;;;;;;;58.45;43.13;;;15.50;99.90;;;;;;5075097;28;20382;-24
2022/06/18 04:48:08;;;;;;;58.28;39.90;;;15.70;99.90;;;;;;5072010;28;20044;-24
2022/06/18 04:50:39;;;;;;;53.75;41.40;;;15.70;99.90;;;;;;5073077;28;20080;-24
2022/06/18 04:53:06;;;;;;;51.00;38.33;;;15.80;99.90;;;;;;5073989;28;20056;-23
2022/06/18 04:55:33;;;;;;;48.60;33.03;;;15.90;99.90;;;;;;5074530;28;20096;-23
2022/06/18 04:57:59;;;;;;;55.55;38.15;;;16.00;99.90;;;;;;5072942;28;20487;-24
2022/06/18 05:00:25;;;;;;;48.15;31.27;;;16.10;99.90;;;;;;5073884;28;20052;-24
2022/06/18 05:02:51;;;;;;;50.33;33.78;;;16.30;99.90;;;;;;5073882;28;20048;-24
2022/06/18 05:05:23;;;;;;;42.75;31.23;;;16.70;99.90;;;;;;5073748;28;20049;-24
2022/06/18 05:07:49;;;;;;;48.35;33.58;;;17.10;99.90;;;;;;5074352;28;20174;-24
2022/06/18 05:10:15;;;;;;;43.97;32.40;;;17.40;1.00;;;;;;5073683;28;20098;-24
2022/06/18 05:12:41;;;;;;;42.45;30.00;;;17.60;99.90;;;;;;5073769;28;20059;-24
2022/06/18 05:15:09;;;;;;;41.33;28.08;;;17.90;99.90;;;;;;5073715;28;20043;-24
2022/06/18 05:17:39;;;;;;;37.42;29.17;;;18.10;99.90;;;;;;5073694;28;20044;-24
2022/06/18 05:20:06;;;;;;;43.70;28.48;;;18.30;1.00;;;;;;5072955;28;20090;-24
2022/06/18 05:22:31;;;;;;;41.45;26.13;;;18.60;99.90;;;;;;5073661;28;20048;-24
2022/06/18 05:24:57;;;;;;;39.58;25.48;;;18.80;99.90;;;;;;5074358;28;20117;-24
2022/06/18 05:27:28;;;;;;;38.33;24.55;;;19.10;99.90;;;;;;5074249;28;20376;-24
2022/06/18 05:29:54;;;;;;;31.10;23.45;;;19.30;97.90;;;;;;5074466;28;20044;-24
2022/06/18 05:32:20;;;;;;;37.05;21.88;;;19.50;1.00;;;;;;5073127;28;20047;-24
2022/06/18 05:34:46;;;;;;;38.72;20.70;;;19.60;1.00;;;;;;5073373;28;20040;-24
2022/06/18 05:37:15;;;;;;;39.40;21.55;;;19.70;1.00;;;;;;5073529;28;20049;-24
2022/06/18 05:39:41;;;;;;;34.47;20.58;;;19.90;1.00;;;;;;5073463;28;20502;-24
2022/06/18 05:42:07;;;;;;;26.42;19.15;;;20.00;99.90;;;;;;5073443;28;20048;-24
2022/06/18 05:44:33;;;;;;;29.20;18.40;;;20.20;99.90;;;;;;5073596;28;20545;-24
2022/06/18 05:46:59;;;;;;;28.73;16.30;;;20.30;99.90;;;;;;5073416;28;20136;-24
2022/06/18 05:49:25;;;;;;;24.38;16.10;;;20.60;99.90;;;;;;5073671;28;20119;-24
2022/06/18 05:51:51;;;;;;;28.38;17.40;;;20.60;99.90;;;;;;5073400;28;20088;-24
2022/06/18 05:54:17;;;;;;;26.92;16.80;;;20.60;99.90;;;;;;5072164;28;20109;-24
2022/06/18 05:56:42;;;;;;;27.73;17.13;;;20.70;99.90;;;;;;5073308;28;20071;-24
2022/06/18 05:59:11;;;;;;;34.20;14.98;;;20.90;99.90;;;;;;5074783;28;20044;-24
2022/06/18 06:01:36;;;;;;;24.95;12.38;;;21.10;86.30;;;;;;5059132;28;20157;-24
2022/06/18 06:04:03;;;;;;;23.00;10.52;;;21.30;68.80;;;;;;5076012;28;20066;-24
2022/06/18 06:06:29;;;;;;;21.10;10.55;;;21.30;1.00;;;;;;5059212;28;20127;-24
2022/06/18 06:08:55;;;;;;;22.80;11.70;;;20.90;11.10;;;;;;5077377;28;20119;-24
2022/06/18 06:11:29;;;;;;;24.95;11.15;;;20.70;99.90;;;;;;5076268;28;20604;-24
2022/06/18 06:13:59;;;;;;;20.40;9.50;;;20.80;99.90;;;;;;5077564;28;20052;-24
2022/06/18 06:16:26;;;;;;;17.85;9.48;;;21.10;92.80;;;;;;5076956;28;20124;-24
2022/06/18 06:18:52;;;;;;;33.15;10.32;;;21.10;66.40;;;;;;5076461;28;20418;-24
2022/06/18 06:21:18;;;;;;;16.20;9.15;;;21.20;36.50;;;;;;5077100;28;20076;-24
2022/06/18 06:23:44;;;;;;;19.05;8.23;;;21.30;14.90;;;;;;5076824;28;20056;-24
2022/06/18 06:26:28;;;;;;;23.33;7.70;;;21.30;18.80;;;;;;5076497;28;20143;-24
2022/06/18 06:28:54;;;;;;;22.77;8.68;;;20.90;17.60;;;;;;5076723;28;20059;-24
2022/06/18 06:31:20;;;;;;;20.75;7.18;;;21.10;75.00;;;;;;5075444;28;20047;-24
2022/06/18 06:33:45;;;;;;;15.65;6.47;;;21.20;1.00;;;;;;5076284;28;20478;-24
2022/06/18 06:36:12;;;;;;;21.05;7.47;;;21.20;1.00;;;;;;5076656;28;20052;-24
2022/06/18 06:38:39;;;;;;;18.92;8.30;;;21.10;1.00;;;;;;5076554;28;20044;-24
2022/06/18 06:41:10;;;;;;;17.50;7.97;;;21.10;1.00;;;;;;5075570;28;20425;-24
2022/06/18 06:43:36;;;;;;;23.88;8.65;;;21.10;1.00;;;;;;5076779;28;20529;-24
2022/06/18 06:46:02;;;;;;;14.02;7.00;;;21.20;2.00;;;;;;5075766;28;20128;-23
2022/06/18 06:48:28;;;;;;;16.77;6.35;;;21.30;1.00;;;;;;5076072;28;20494;-24
2022/06/18 06:50:53;;;;;;;16.50;7.20;;;21.30;1.00;;;;;;5076336;28;20098;-24
2022/06/18 06:53:20;;;;;;;12.48;6.05;;;21.40;1.00;;;;;;5075372;28;20040;-24
2022/06/18 06:58:30;;;;;;;19.58;7.28;;;21.50;1.00;;;;;;5076533;28;20076;-24
2022/06/18 07:00:57;;;;;;;18.17;6.50;;;21.60;1.00;;;;;;5076087;28;20470;-24
2022/06/18 07:03:29;;;;;;;17.75;6.53;;;21.70;1.00;;;;;;5075749;28;20567;-24
2022/06/18 07:05:57;;;;;;;16.40;7.27;;;21.80;1.00;;;;;;5076558;28;20044;-24
2022/06/18 07:08:23;;;;;;;20.75;7.03;;;21.70;1.00;;;;;;5074767;28;20279;-24
2022/06/18 07:10:50;;;;;;;13.90;5.90;;;21.80;1.00;;;;;;5074864;28;20048;-24
2022/06/18 07:13:16;;;;;;;12.82;5.38;;;22.10;1.00;;;;;;5075629;28;20494;-24
2022/06/18 07:15:43;;;;;;;12.95;5.38;;;22.20;1.00;;;;;;5075894;28;20048;-24
2022/06/18 07:18:32;;;;;;;12.27;5.75;;;22.40;1.00;;;;;;5075813;28;20098;-24
2022/06/18 07:20:59;;;;;;;10.90;5.03;;;22.80;99.90;;;;;;5076648;28;20374;-24
2022/06/18 07:23:25;;;;;;;13.20;5.63;;;23.00;99.90;;;;;;5075710;28;20101;-24
2022/06/18 07:25:50;;;;;;;13.05;4.82;;;23.20;99.90;;;;;;5075316;28;20060;-24
2022/06/18 07:28:16;;;;;;;18.17;5.85;;;23.30;99.90;;;;;;5076504;28;20067;-24
2022/06/18 07:30:42;;;;;;;11.65;4.18;;;23.40;99.90;;;;;;5075597;28;20504;-24
2022/06/18 07:33:14;;;;;;;8.65;3.20;;;23.50;99.90;;;;;;5075491;28;20052;-24
2022/06/18 07:35:39;;;;;;;12.20;3.88;;;23.40;99.90;;;;;;5075579;28;20115;-24
2022/06/18 07:38:05;;;;;;;6.28;3.17;;;23.30;99.90;;;;;;5075704;28;20534;-24
2022/06/18 07:40:36;;;;;;;11.98;3.03;;;23.30;99.90;;;;;;5075926;28;20051;-24
2022/06/18 07:43:06;;;;;;;7.85;2.53;;;23.40;99.90;;;;;;5075670;28;20390;-24
2022/06/18 07:45:32;;;;;;;4.65;1.55;;;23.40;99.90;;;;;;5058382;28;20036;-24
2022/06/18 07:47:58;;;;;;;4.72;1.15;;;23.40;99.90;;;;;;5074274;28;20101;-24
2022/06/18 07:50:23;;;;;;;5.60;1.83;;;23.10;99.90;;;;;;5074063;28;20049;-24
2022/06/18 07:52:50;;;;;;;4.05;1.52;;;22.60;99.90;;;;;;5075115;28;20091;-24
2022/06/18 07:55:25;;;;;;;5.53;1.48;;;22.50;99.90;;;;;;5075077;28;20048;-24
2022/06/18 07:57:51;;;;;;;2.80;0.60;;;22.70;99.90;;;;;;5057489;28;20139;-24
2022/06/18 08:00:20;;;;;;;2.45;0.70;;;22.40;99.90;;;;;;5074976;28;20131;-24
2022/06/18 08:02:47;;;;;;;3.08;1.15;;;22.40;99.90;;;;;;5073802;28;20611;-24
2022/06/18 08:05:19;;;;;;;3.38;0.77;;;22.50;99.90;;;;;;5074794;28;20521;-24
2022/06/18 08:07:45;;;;;;;;;;;22.60;99.90;;;;;;5076108;28;20040;-24
2022/06/18 08:10:11;;;;;;;4.13;1.75;;;22.50;99.90;;;;;;5074712;28;19920;-24
2022/06/18 08:12:37;;;;;;;4.55;1.80;;;22.70;1.00;;;;;;5074768;28;20052;-24
2022/06/18 08:15:05;;;;;;;7.85;1.80;;;22.90;99.90;;;;;;5073181;28;20398;-24
2022/06/18 08:17:31;;;;;;;5.40;1.73;;;22.70;99.90;;;;;;5074548;28;20048;-24
2022/06/18 08:19:57;;;;;;;3.70;1.27;;;22.20;1.00;;;;;;5075373;28;20044;-24
2022/06/18 08:22:24;;;;;;;3.92;1.67;;;22.20;1.00;;;;;;5073373;28;20493;-24
2022/06/18 08:24:50;;;;;;;5.78;1.48;;;22.30;1.00;;;;;;5074445;28;20170;-24
2022/06/18 08:27:18;;;;;;;4.93;1.35;;;22.50;1.00;;;;;;5074698;28;20131;-24
2022/06/18 08:29:43;;;;;;;4.18;1.35;;;22.90;1.00;;;;;;5074448;28;20044;-24
2022/06/18 08:32:09;;;;;;;3.60;1.40;;;22.90;1.00;;;;;;5074397;28;20470;-24
2022/06/18 08:34:35;;;;;;;8.30;1.73;;;22.50;1.00;;;;;;5074084;28;20040;-24
2022/06/18 08:37:04;;;;;;;4.80;1.80;;;22.10;1.00;;;;;;5075008;28;20363;-24
2022/06/18 08:39:30;;;;;;;4.38;1.48;;;22.00;1.00;;;;;;5074264;28;20123;-24
2022/06/18 08:42:03;;;;;;;3.70;1.35;;;21.80;1.00;;;;;;5074752;28;20055;-24
2022/06/18 08:44:58;;;;;;;5.60;1.73;;;22.00;1.00;;;;;;5073190;28;20052;-24
2022/06/18 08:48:02;;;;;;;6.28;1.80;;;22.10;99.90;;;;;;5074002;28;20056;-24
2022/06/18 08:50:42;;;;;;;;;;;22.30;1.00;;;;;;5073533;28;20048;-24
2022/06/18 08:53:35;;;;;;;5.18;1.67;;;22.10;1.00;;;;;;5074296;28;19927;-24
2022/06/18 08:56:04;;;;;;;3.90;1.42;;;22.40;1.00;;;;;;5074338;28;20109;-24
2022/06/18 08:58:52;;;;;;;6.57;1.83;;;22.70;1.00;;;;;;5074211;28;20052;-24
2022/06/18 09:01:31;;;;;;;3.97;1.50;;;23.00;1.00;;;;;;5073720;28;20470;-24
2022/06/18 09:04:11;;;;;;;8.02;1.80;;;22.80;99.90;;;;;;5073250;28;20081;-24
2022/06/18 09:07:11;;;;;;;5.30;1.40;;;22.90;99.90;;;;;;5073828;28;20055;-24
2022/06/18 09:10:01;;;;;;;6.13;1.48;;;22.90;99.90;;;;;;5074161;28;20048;-24
2022/06/18 09:12:51;;;;;;;4.82;1.30;;;22.60;99.90;;;;;;5073795;28;20548;-24
2022/06/18 09:15:34;;;;;;;4.32;1.05;;;22.40;99.90;;;;;;5074074;28;20045;-24
2022/06/18 09:18:29;;;;;;;5.15;1.08;;;22.90;1.00;;;;;;5073810;28;20131;-24
2022/06/18 09:21:07;;;;;;;4.13;1.20;;;23.10;99.90;;;;;;5069035;28;20048;-24
2022/06/18 09:23:40;;;;;;;4.82;1.30;;;22.90;99.90;;;;;;5074565;28;20417;-25
2022/06/18 09:26:13;;;;;;;6.03;1.77;;;23.30;99.90;;;;;;5072740;28;20061;-25
2022/06/18 09:28:57;;;;;;;7.68;1.20;;;23.40;99.90;;;;;;5074186;28;20469;-24
2022/06/18 09:31:36;;;;;;;6.18;1.13;;;23.20;99.90;;;;;;5073884;28;20041;-24
2022/06/18 09:34:22;;;;;;;3.72;1.08;;;23.30;99.90;;;;;;5077423;28;20102;-24
2022/06/18 09:36:53;;;;;;;2.38;0.85;;;23.40;99.90;;;;;;5080535;28;20390;-24
2022/06/18 09:39:26;;;;;;;6.38;1.33;;;23.40;99.90;;;;;;5080770;28;20044;-25
2022/06/18 09:42:05;;;;;;;5.80;1.33;;;23.30;99.90;;;;;;5080173;28;20051;-24
2022/06/18 09:44:41;;;;;;;7.00;1.02;;;23.30;99.90;;;;;;5079466;28;20123;-24
2022/06/18 09:47:17;;;;;;;5.57;1.30;;;23.20;99.90;;;;;;5079659;28;20041;-25
2022/06/18 09:49:45;;;;;;;3.55;1.17;;;23.10;99.90;;;;;;5080747;28;20127;-25
2022/06/18 09:52:17;;;;;;;4.85;1.15;;;23.40;99.90;;;;;;5080120;28;20048;-24
2022/06/18 09:54:50;;;;;;;3.83;0.70;;;23.70;99.90;;;;;;5080915;28;20045;-25
2022/06/18 09:57:19;;;;;;;4.07;0.82;;;23.90;99.90;;;;;;5078747;28;20086;-25
2022/06/18 10:00:08;;;;;;;3.92;1.17;;;24.20;99.90;;;;;;5080001;28;20131;-25
2022/06/18 10:02:38;;;;;;;2.53;1.05;;;24.50;99.90;;;;;;5077993;28;20422;-25
2022/06/18 10:07:53;;;;;;;3.47;0.95;;;24.90;66.40;;;;;;5080845;28;20458;-25
2022/06/18 10:10:22;;;;;;;4.13;0.70;;;25.30;1.00;;;;;;5078879;28;20057;-25
2022/06/18 10:12:55;;;;;;;5.32;1.05;;;25.20;1.00;;;;;;5079884;28;20084;-25
2022/06/18 10:15:23;;;;;;;3.78;0.95;;;25.00;9.80;;;;;;5079468;28;20131;-25
2022/06/18 10:18:14;;;;;;;4.97;1.00;;;25.20;24.60;;;;;;5078895;28;20074;-25
2022/06/18 10:21:03;;;;;;;1.75;0.55;;;25.30;23.20;;;;;;5079754;28;20051;-25
2022/06/18 10:23:50;;;;;;;1.73;0.70;;;25.40;1.00;;;;;;5078933;28;20123;-25
2022/06/18 10:26:57;;;;;;;1.73;0.60;;;25.60;1.00;;;;;;5079442;28;20135;-25
2022/06/18 10:29:48;;;;;;;1.60;0.50;;;25.50;1.00;;;;;;5057361;28;20053;-25
2022/06/18 10:33:07;;;;;;;1.65;0.63;;;25.20;1.00;;;;;;5079018;28;20086;-25
2022/06/18 10:35:49;;;;;;;3.67;0.80;;;25.70;1.00;;;;;;5067305;28;20121;-25
2022/06/18 10:38:32;;;;;;;3.97;0.60;;;25.90;99.90;;;;;;5079485;28;20074;-25
2022/06/18 10:41:25;;;;;;;4.70;0.85;;;25.90;1.00;;;;;;5079686;28;20084;-25
2022/06/18 10:44:04;;;;;;;2.75;1.02;;;25.80;99.90;;;;;;5079680;28;20089;-25
2022/06/18 10:46:31;;;;;;;1.65;0.50;;;25.60;99.90;;;;;;5075331;28;20048;-25
2022/06/18 10:48:59;;;;;;;4.43;0.63;;;25.00;99.90;;;;;;5075111;28;20431;-25
2022/06/18 10:51:34;;;;;;;2.05;0.50;;;25.30;1.00;;;;;;5075087;28;20051;-25
2022/06/18 10:54:03;;;;;;;2.10;0.60;;;26.00;99.90;;;;;;5077108;28;20052;-25
2022/06/18 10:56:32;;;;;;;1.55;0.50;;;26.10;99.90;;;;;;5076696;28;20421;-25
2022/06/18 10:59:00;;;;;;;2.30;0.40;;;26.50;99.90;;;;;;5076971;28;20370;-25
2022/06/18 11:01:29;;;;;;;1.50;0.55;;;26.90;99.90;;;;;;5075159;28;20482;-25
2022/06/18 11:04:19;;;;;;;2.05;0.57;;;26.70;99.90;;;;;;5076105;28;20139;-25
2022/06/18 11:06:47;;;;;;;0.95;0.32;;;26.70;99.90;;;;;;5075337;28;20044;-25
2022/06/18 11:09:22;;;;;;;3.53;0.50;;;27.00;99.90;;;;;;5058752;28;20131;-25
2022/06/18 11:11:54;;;;;;;3.60;0.75;;;27.00;99.90;;;;;;5075916;28;20487;-25
2022/06/18 11:14:20;;;;;;;2.17;0.68;;;26.80;99.90;;;;;;5075954;28;20037;-25
2022/06/18 11:16:48;;;;;;;2.35;0.77;;;26.30;99.90;;;;;;5074724;28;20127;-25
2022/06/18 11:19:33;;;;;;;2.90;0.70;;;26.20;99.90;;;;;;5075686;28;20087;-25
2022/06/18 11:22:29;;;;;;;2.25;0.80;;;26.30;99.90;;;;;;5074638;28;20553;-25
2022/06/18 11:24:58;;;;;;;7.82;1.73;;;26.30;99.90;;;;;;5071161;28;20064;-25
2022/06/18 11:27:30;;;;;;;8.98;1.90;;;26.50;99.90;;;;;;5075680;28;20056;-25
2022/06/18 11:29:56;;;;;;;17.92;2.92;;;26.30;99.90;;;;;;5074741;28;20057;-25
2022/06/18 11:32:30;;;;;;;12.63;2.65;;;26.10;99.90;;;;;;5075204;28;20055;-25
2022/06/18 11:34:59;;;;;;;13.70;2.17;;;26.00;1.00;;;;;;5076111;28;20041;-25
2022/06/18 11:37:28;;;;;;;7.20;1.45;;;26.10;99.90;;;;;;5074328;28;20054;-25
2022/06/18 11:39:55;;;;;;;5.65;1.13;;;26.30;99.90;;;;;;5075386;28;20051;-25
2022/06/18 11:42:31;;;;;;;6.82;1.30;;;26.70;99.90;;;;;;5075396;28;20052;-25
2022/06/18 11:45:05;;;;;;;7.80;1.23;;;26.90;99.90;;;;;;5075308;28;20052;-25
2022/06/18 11:47:38;;;;;;;6.25;1.33;;;27.20;99.90;;;;;;5075377;28;20055;-25
2022/06/18 11:50:16;;;;;;;4.55;1.10;;;26.70;99.90;;;;;;5075541;28;20466;-25
2022/06/18 11:52:47;;;;;;;4.20;1.20;;;26.50;99.90;;;;;;5074421;28;20055;-25
2022/06/18 11:55:25;;;;;;;7.60;1.60;;;26.00;99.90;;;;;;5075131;28;20036;-25
2022/06/18 11:58:09;;;;;;;9.18;1.38;;;26.30;99.90;;;;;;5074211;28;20040;-25
2022/06/18 12:00:43;;;;;;;5.20;1.58;;;25.70;99.90;;;;;;5075097;28;20169;-25
2022/06/18 12:03:29;;;;;;;5.07;1.30;;;25.60;99.90;;;;;;5074387;28;20390;-25
2022/06/18 12:06:02;;;;;;;5.32;1.65;;;25.60;99.90;;;;;;5073709;28;20041;-25
2022/06/18 12:08:28;;;;;;;;;;;25.50;99.90;;;;;;5075313;28;20052;-25
2022/06/18 12:11:09;;;;;;;4.57;1.23;;;24.90;99.90;;;;;;5074430;28;19928;-25
2022/06/18 12:13:41;;;;;;;5.70;1.20;;;25.00;99.90;;;;;;5074115;28;20102;-25
2022/06/18 12:16:36;;;;;;;8.68;1.60;;;25.20;99.90;;;;;;5074766;28;20040;-25
2022/06/18 12:19:04;;;;;;;8.38;1.10;;;25.10;99.90;;;;;;5075330;28;20514;-25
2022/06/18 12:21:41;;;;;;;8.25;1.38;;;24.90;99.90;;;;;;5074550;28;20504;-25
2022/06/18 12:24:21;;;;;;;5.47;1.33;;;25.10;99.90;;;;;;5075440;28;20067;-25
2022/06/18 12:27:13;;;;;;;9.20;1.40;;;25.50;99.90;;;;;;5074530;28;20052;-25
2022/06/18 12:29:53;;;;;;;7.03;1.60;;;25.80;99.90;;;;;;5074752;28;20561;-25
2022/06/18 12:32:27;;;;;;;9.23;2.08;;;25.90;99.90;;;;;;5074404;28;20053;-25
2022/06/18 12:35:14;;;;;;;6.72;1.67;;;25.80;99.90;;;;;;5074403;28;20081;-25
2022/06/18 12:37:56;;;;;;;6.75;1.77;;;26.00;99.90;;;;;;5074332;28;20060;-25
2022/06/18 12:40:51;;;;;;;9.55;1.70;;;26.30;99.90;;;;;;5073421;28;20048;-25
2022/06/18 12:43:35;;;;;;;9.00;2.10;;;26.30;99.90;;;;;;5069156;28;20540;-25
2022/06/18 12:46:04;;;;;;;7.00;1.77;;;26.20;75.50;;;;;;5073309;28;20046;-25
2022/06/18 12:48:44;;;;;;;8.65;1.83;;;26.20;99.90;;;;;;5073946;28;20483;-25
2022/06/18 12:51:37;;;;;;;13.32;2.33;;;26.30;99.90;;;;;;5074115;28;20055;-25
2022/06/18 12:54:26;;;;;;;7.97;2.00;;;26.20;99.90;;;;;;5074116;28;20048;-25
2022/06/18 12:57:11;;;;;;;11.70;2.30;;;26.10;65.80;;;;;;5074013;28;20045;-25
2022/06/18 13:00:03;;;;;;;8.80;2.20;;;26.10;99.90;;;;;;5073977;28;20048;-25
2022/06/18 13:02:59;;;;;;;6.72;1.70;;;26.00;99.90;;;;;;5074583;28;20497;-25
2022/06/18 13:05:49;;;;;;;10.32;1.85;;;26.00;99.90;;;;;;5074127;28;20467;-25
2022/06/18 13:08:30;;;;;;;8.73;1.80;;;26.10;83.60;;;;;;5056305;28;20123;-25
2022/06/18 13:11:09;;;;;;;7.57;2.25;;;26.00;94.20;;;;;;5073736;28;20045;-25
2022/06/18 13:13:38;;;;;;;10.43;2.47;;;25.60;1.00;;;;;;5074351;28;20131;-25
2022/06/18 13:16:11;;;;;;;10.27;2.20;;;25.80;37.50;;;;;;5074305;28;20075;-25
2022/06/18 13:18:36;;;;;;;;;;;25.50;95.40;;;;;;5074095;28;20083;-25
2022/06/18 13:21:05;;;;;;;11.15;2.30;;;25.00;12.60;;;;;;5072404;28;19927;-25